CSC124 ZUUU-ZULS
Flight info
| Callsign | CSC124 |
|---|---|
| Flight time | 1h 47m |
| Altitude | 32100 |
| Route | MUMGO9W MUMGO B213 LXA |
| Aircraft | A319/M-SDE3FGHIRWY/LB1 |
Departure
| Time | 2026-05-07 12:14 |
|---|---|
| Airport | Chengdu Shuangliu International Airport (ZUUU) |
Arrival
| Time | 2026-05-07 14:02 |
|---|---|
| Airport | Lhasa Gonggar International Airport (ZULS) |
| Time | Latitude | Longitude | Altitude | Speed | Heading |
|---|---|---|---|---|---|
| 2026-05-07 12:09 | 30.52545 | 103.93719 | 1651 ft | 23 kts | 200° |
| 2026-05-07 12:10 | 30.52415 | 103.93662 | 1652 ft | 20 kts | 201° |
| 2026-05-07 12:10 | 30.52293 | 103.93605 | 1652 ft | 16 kts | 202° |
| 2026-05-07 12:10 | 30.52214 | 103.93606 | 1653 ft | 11 kts | 128° |
| 2026-05-07 12:10 | 30.52197 | 103.93655 | 1660 ft | 0 kts | 113° |
| 2026-05-07 12:11 | 30.52196 | 103.93658 | 1658 ft | 1 kts | 114° |
| 2026-05-07 12:12 | 30.52186 | 103.93682 | 1671 ft | 3 kts | 115° |
| 2026-05-07 12:12 | 30.52184 | 103.93687 | 1668 ft | 1 kts | 115° |
| 2026-05-07 12:12 | 30.52170 | 103.93719 | 1670 ft | 7 kts | 117° |
| 2026-05-07 12:12 | 30.52168 | 103.93770 | 1666 ft | 7 kts | 60° |
| 2026-05-07 12:13 | 30.52208 | 103.93793 | 1673 ft | 0 kts | 17° |
| 2026-05-07 12:13 | 30.52317 | 103.93842 | 1669 ft | 44 kts | 22° |
| 2026-05-07 12:14 | 30.52780 | 103.94057 | 1671 ft | 100 kts | 21° |
| 2026-05-07 12:14 | 30.53600 | 103.94436 | 1664 ft | 153 kts | 21° |
| 2026-05-07 12:14 | 30.54690 | 103.94930 | 1979 ft | 171 kts | 20° |
| 2026-05-07 12:14 | 30.55817 | 103.95457 | 2399 ft | 185 kts | 26° |
| 2026-05-07 12:15 | 30.56898 | 103.96432 | 2657 ft | 210 kts | 48° |
| 2026-05-07 12:15 | 30.57569 | 103.98052 | 2945 ft | 239 kts | 75° |
| 2026-05-07 12:15 | 30.57955 | 104.00023 | 3329 ft | 263 kts | 76° |
| 2026-05-07 12:15 | 30.58385 | 104.02132 | 4055 ft | 271 kts | 74° |
| 2026-05-07 12:16 | 30.58876 | 104.04205 | 5074 ft | 269 kts | 72° |
| 2026-05-07 12:16 | 30.59071 | 104.06350 | 6112 ft | 270 kts | 94° |
| 2026-05-07 12:16 | 30.58493 | 104.08415 | 7117 ft | 274 kts | 117° |
| 2026-05-07 12:16 | 30.57177 | 104.10056 | 7964 ft | 287 kts | 142° |
| 2026-05-07 12:17 | 30.55279 | 104.10884 | 8782 ft | 301 kts | 170° |
| 2026-05-07 12:17 | 30.53190 | 104.10594 | 9558 ft | 313 kts | 200° |
| 2026-05-07 12:17 | 30.51407 | 104.09143 | 10299 ft | 319 kts | 232° |
| 2026-05-07 12:17 | 30.50452 | 104.06862 | 11083 ft | 315 kts | 262° |
| 2026-05-07 12:18 | 30.50249 | 104.04269 | 11421 ft | 334 kts | 270° |
| 2026-05-07 12:18 | 30.50170 | 104.01485 | 11581 ft | 357 kts | 271° |
| 2026-05-07 12:18 | 30.50126 | 103.98562 | 11707 ft | 378 kts | 271° |
| 2026-05-07 12:18 | 30.50169 | 103.95447 | 11847 ft | 395 kts | 277° |
| 2026-05-07 12:19 | 30.50653 | 103.92285 | 12289 ft | 401 kts | 287° |
| 2026-05-07 12:19 | 30.51585 | 103.89239 | 12888 ft | 402 kts | 296° |
| 2026-05-07 12:19 | 30.52946 | 103.86406 | 13509 ft | 404 kts | 305° |
| 2026-05-07 12:19 | 30.54625 | 103.83784 | 14106 ft | 406 kts | 307° |
| 2026-05-07 12:20 | 30.56334 | 103.81167 | 14654 ft | 408 kts | 307° |
| 2026-05-07 12:20 | 30.58055 | 103.78536 | 15206 ft | 410 kts | 307° |
| 2026-05-07 12:20 | 30.59764 | 103.75924 | 15714 ft | 414 kts | 306° |
| 2026-05-07 12:20 | 30.61508 | 103.73253 | 16225 ft | 416 kts | 306° |
| 2026-05-07 12:21 | 30.63216 | 103.70529 | 16712 ft | 418 kts | 301° |
| 2026-05-07 12:21 | 30.64589 | 103.67555 | 17200 ft | 419 kts | 292° |
| 2026-05-07 12:21 | 30.65550 | 103.64354 | 17676 ft | 420 kts | 284° |
| 2026-05-07 12:21 | 30.66333 | 103.61080 | 18159 ft | 422 kts | 284° |
| 2026-05-07 12:22 | 30.67129 | 103.57793 | 18581 ft | 424 kts | 284° |
| 2026-05-07 12:22 | 30.67920 | 103.54534 | 18947 ft | 426 kts | 284° |
| 2026-05-07 12:22 | 30.68726 | 103.51219 | 19300 ft | 428 kts | 284° |
| 2026-05-07 12:22 | 30.69536 | 103.47887 | 19696 ft | 429 kts | 284° |
| 2026-05-07 12:23 | 30.70347 | 103.44544 | 20074 ft | 430 kts | 284° |
| 2026-05-07 12:23 | 30.71159 | 103.41194 | 20429 ft | 432 kts | 284° |
| 2026-05-07 12:23 | 30.71977 | 103.37820 | 20754 ft | 434 kts | 284° |
| 2026-05-07 12:23 | 30.72796 | 103.34435 | 21127 ft | 436 kts | 284° |
| 2026-05-07 12:24 | 30.73614 | 103.31030 | 21412 ft | 438 kts | 284° |
| 2026-05-07 12:24 | 30.74421 | 103.27657 | 21697 ft | 440 kts | 284° |
| 2026-05-07 12:24 | 30.75243 | 103.24221 | 21965 ft | 442 kts | 284° |
| 2026-05-07 12:24 | 30.76069 | 103.20772 | 22242 ft | 444 kts | 284° |
| 2026-05-07 12:25 | 30.76896 | 103.17312 | 22538 ft | 445 kts | 284° |
| 2026-05-07 12:25 | 30.77726 | 103.13836 | 22773 ft | 447 kts | 284° |
| 2026-05-07 12:25 | 30.78557 | 103.10346 | 23011 ft | 448 kts | 284° |
| 2026-05-07 12:25 | 30.79389 | 103.06857 | 23282 ft | 448 kts | 284° |
| 2026-05-07 12:26 | 30.80159 | 103.03346 | 23548 ft | 449 kts | 279° |
| 2026-05-07 12:26 | 30.80531 | 102.99792 | 23751 ft | 449 kts | 271° |
| 2026-05-07 12:26 | 30.80514 | 102.96159 | 23970 ft | 450 kts | 268° |
| 2026-05-07 12:26 | 30.80442 | 102.92517 | 24160 ft | 451 kts | 268° |
| 2026-05-07 12:27 | 30.80378 | 102.88864 | 24375 ft | 452 kts | 268° |
| 2026-05-07 12:27 | 30.80320 | 102.85206 | 24573 ft | 453 kts | 268° |
| 2026-05-07 12:27 | 30.80261 | 102.81544 | 24792 ft | 454 kts | 268° |
| 2026-05-07 12:27 | 30.80201 | 102.77870 | 25018 ft | 454 kts | 268° |
| 2026-05-07 12:28 | 30.80135 | 102.74197 | 25233 ft | 454 kts | 268° |
| 2026-05-07 12:28 | 30.80064 | 102.70526 | 25431 ft | 455 kts | 268° |
| 2026-05-07 12:28 | 30.79989 | 102.66896 | 25597 ft | 455 kts | 268° |
| 2026-05-07 12:28 | 30.79911 | 102.63214 | 25768 ft | 456 kts | 268° |
| 2026-05-07 12:29 | 30.79835 | 102.59522 | 25942 ft | 457 kts | 268° |
| 2026-05-07 12:29 | 30.79761 | 102.55822 | 26133 ft | 457 kts | 268° |
| 2026-05-07 12:29 | 30.79686 | 102.52129 | 26301 ft | 458 kts | 268° |
| 2026-05-07 12:29 | 30.79611 | 102.48421 | 26475 ft | 459 kts | 268° |
| 2026-05-07 12:30 | 30.79535 | 102.44717 | 26730 ft | 457 kts | 268° |
| 2026-05-07 12:30 | 30.79458 | 102.41031 | 27000 ft | 456 kts | 268° |
| 2026-05-07 12:30 | 30.79380 | 102.37400 | 27275 ft | 455 kts | 268° |
| 2026-05-07 12:30 | 30.79299 | 102.33731 | 27590 ft | 453 kts | 268° |
| 2026-05-07 12:31 | 30.79217 | 102.30081 | 27903 ft | 451 kts | 268° |
| 2026-05-07 12:31 | 30.79137 | 102.26441 | 28229 ft | 450 kts | 268° |
| 2026-05-07 12:31 | 30.79056 | 102.22810 | 28579 ft | 449 kts | 268° |
| 2026-05-07 12:31 | 30.78977 | 102.19187 | 28916 ft | 447 kts | 268° |
| 2026-05-07 12:32 | 30.78897 | 102.15581 | 29234 ft | 446 kts | 268° |
| 2026-05-07 12:32 | 30.78815 | 102.11979 | 29563 ft | 445 kts | 268° |
| 2026-05-07 12:32 | 30.78732 | 102.08395 | 29881 ft | 443 kts | 268° |
| 2026-05-07 12:32 | 30.78646 | 102.04863 | 30209 ft | 442 kts | 267° |
| 2026-05-07 12:33 | 30.78465 | 101.97748 | 30943 ft | 438 kts | 267° |
| 2026-05-07 12:33 | 30.78373 | 101.94223 | 31366 ft | 434 kts | 267° |
| 2026-05-07 12:33 | 30.78300 | 101.90728 | 31764 ft | 431 kts | 269° |
| 2026-05-07 12:34 | 30.78522 | 101.87256 | 32093 ft | 430 kts | 274° |
| 2026-05-07 12:34 | 30.78818 | 101.83806 | 32310 ft | 428 kts | 274° |
| 2026-05-07 12:34 | 30.79395 | 101.77006 | 32361 ft | 424 kts | 274° |
| 2026-05-07 12:35 | 30.79955 | 101.70198 | 32339 ft | 423 kts | 274° |
| 2026-05-07 12:35 | 30.80508 | 101.63397 | 32337 ft | 422 kts | 273° |
| 2026-05-07 12:36 | 30.81069 | 101.56590 | 32311 ft | 423 kts | 273° |
| 2026-05-07 12:36 | 30.81628 | 101.49787 | 32305 ft | 422 kts | 273° |
| 2026-05-07 12:37 | 30.82171 | 101.43040 | 32268 ft | 422 kts | 273° |
| 2026-05-07 12:37 | 30.82711 | 101.36248 | 32259 ft | 421 kts | 273° |
| 2026-05-07 12:38 | 30.83256 | 101.29454 | 32235 ft | 422 kts | 273° |
| 2026-05-07 12:38 | 30.83797 | 101.22658 | 32222 ft | 421 kts | 273° |
| 2026-05-07 12:39 | 30.84324 | 101.15916 | 32218 ft | 422 kts | 273° |
| 2026-05-07 12:39 | 30.84856 | 101.09116 | 32216 ft | 422 kts | 273° |
| 2026-05-07 12:40 | 30.85389 | 101.02324 | 32215 ft | 422 kts | 273° |
| 2026-05-07 12:40 | 30.85913 | 100.95518 | 32186 ft | 422 kts | 273° |
| 2026-05-07 12:41 | 30.86424 | 100.88762 | 32177 ft | 421 kts | 273° |
| 2026-05-07 12:41 | 30.86941 | 100.81976 | 32166 ft | 422 kts | 273° |
| 2026-05-07 12:42 | 30.87455 | 100.75176 | 32174 ft | 422 kts | 272° |
| 2026-05-07 12:42 | 30.87963 | 100.68369 | 32164 ft | 422 kts | 272° |
| 2026-05-07 12:43 | 30.88463 | 100.61566 | 32164 ft | 422 kts | 272° |
| 2026-05-07 12:43 | 30.88968 | 100.54812 | 32161 ft | 422 kts | 272° |
| 2026-05-07 12:44 | 30.89472 | 100.48009 | 32157 ft | 422 kts | 272° |
| 2026-05-07 12:44 | 30.89971 | 100.41200 | 32138 ft | 422 kts | 272° |
| 2026-05-07 12:45 | 30.90462 | 100.34386 | 32138 ft | 422 kts | 272° |
| 2026-05-07 12:45 | 30.90948 | 100.27614 | 32133 ft | 422 kts | 272° |
| 2026-05-07 12:46 | 30.91442 | 100.20803 | 32139 ft | 422 kts | 272° |
| 2026-05-07 12:46 | 30.91924 | 100.13985 | 32124 ft | 422 kts | 272° |
| 2026-05-07 12:47 | 30.92390 | 100.07156 | 32125 ft | 423 kts | 271° |
| 2026-05-07 12:47 | 30.92857 | 100.00366 | 32128 ft | 424 kts | 272° |
| 2026-05-07 12:48 | 30.93368 | 99.93521 | 32126 ft | 425 kts | 272° |
| 2026-05-07 12:48 | 30.93930 | 99.86675 | 32123 ft | 425 kts | 272° |
| 2026-05-07 12:49 | 30.94490 | 99.79820 | 32122 ft | 425 kts | 272° |
| 2026-05-07 12:49 | 30.95041 | 99.72956 | 32121 ft | 426 kts | 272° |
| 2026-05-07 12:50 | 30.95573 | 99.66137 | 32107 ft | 426 kts | 272° |
| 2026-05-07 12:50 | 30.96096 | 99.59259 | 32108 ft | 426 kts | 272° |
| 2026-05-07 12:51 | 30.96616 | 99.52382 | 32093 ft | 426 kts | 272° |
| 2026-05-07 12:51 | 30.97136 | 99.45508 | 32107 ft | 426 kts | 272° |
| 2026-05-07 12:52 | 30.97659 | 99.38679 | 32094 ft | 425 kts | 272° |
| 2026-05-07 12:52 | 30.98186 | 99.31808 | 32090 ft | 425 kts | 272° |
| 2026-05-07 12:53 | 30.98696 | 99.24935 | 32091 ft | 426 kts | 272° |
| 2026-05-07 12:53 | 30.99195 | 99.18072 | 32071 ft | 426 kts | 272° |
| 2026-05-07 12:54 | 30.99696 | 99.11198 | 32080 ft | 426 kts | 272° |
| 2026-05-07 12:54 | 31.00204 | 99.04354 | 32079 ft | 427 kts | 272° |
| 2026-05-07 12:55 | 31.00706 | 98.97468 | 32069 ft | 426 kts | 271° |
| 2026-05-07 12:55 | 31.01196 | 98.90580 | 32066 ft | 427 kts | 271° |
| 2026-05-07 12:56 | 31.01686 | 98.83693 | 32068 ft | 427 kts | 271° |
| 2026-05-07 12:56 | 31.02175 | 98.76842 | 32067 ft | 426 kts | 271° |
| 2026-05-07 12:57 | 31.02659 | 98.69954 | 32081 ft | 426 kts | 271° |
| 2026-05-07 12:57 | 31.03147 | 98.63062 | 32072 ft | 427 kts | 272° |
| 2026-05-07 12:58 | 31.03716 | 98.56171 | 32065 ft | 427 kts | 272° |
| 2026-05-07 12:58 | 31.04313 | 98.49313 | 32069 ft | 428 kts | 272° |
| 2026-05-07 12:59 | 31.04900 | 98.42411 | 32069 ft | 428 kts | 272° |
| 2026-05-07 12:59 | 31.05466 | 98.35432 | 32085 ft | 435 kts | 272° |
| 2026-05-07 13:00 | 31.06031 | 98.28391 | 32090 ft | 436 kts | 272° |
| 2026-05-07 13:00 | 31.06592 | 98.21388 | 32090 ft | 436 kts | 272° |
| 2026-05-07 13:01 | 31.07159 | 98.14343 | 32092 ft | 436 kts | 272° |
| 2026-05-07 13:01 | 31.07728 | 98.07291 | 32091 ft | 436 kts | 272° |
| 2026-05-07 13:02 | 31.08297 | 98.00250 | 32086 ft | 436 kts | 272° |
| 2026-05-07 13:02 | 31.08859 | 97.93252 | 32104 ft | 436 kts | 272° |
| 2026-05-07 13:03 | 31.09425 | 97.86212 | 32094 ft | 435 kts | 272° |
| 2026-05-07 13:03 | 31.09984 | 97.79181 | 32095 ft | 435 kts | 272° |
| 2026-05-07 13:04 | 31.10529 | 97.72151 | 32077 ft | 435 kts | 272° |
| 2026-05-07 13:04 | 31.11071 | 97.65122 | 32074 ft | 435 kts | 272° |
| 2026-05-07 13:05 | 31.11613 | 97.58145 | 32066 ft | 434 kts | 272° |
| 2026-05-07 13:05 | 31.12155 | 97.51121 | 32067 ft | 434 kts | 272° |
| 2026-05-07 13:06 | 31.12600 | 97.45286 | 32070 ft | 434 kts | 272° |
| 2026-05-07 13:06 | 31.13213 | 97.37086 | 32057 ft | 434 kts | 272° |
| 2026-05-07 13:07 | 31.13736 | 97.30121 | 32063 ft | 434 kts | 272° |
| 2026-05-07 13:07 | 31.14262 | 97.23104 | 32044 ft | 434 kts | 272° |
| 2026-05-07 13:08 | 31.14397 | 97.17282 | 32047 ft | 430 kts | 262° |
| 2026-05-07 13:08 | 31.13132 | 97.10503 | 32044 ft | 428 kts | 255° |
| 2026-05-07 13:09 | 31.11450 | 97.02671 | 32040 ft | 429 kts | 255° |
| 2026-05-07 13:09 | 31.10016 | 96.95927 | 32063 ft | 428 kts | 255° |
| 2026-05-07 13:10 | 31.08813 | 96.90318 | 32054 ft | 428 kts | 255° |
| 2026-05-07 13:10 | 31.07360 | 96.83585 | 32083 ft | 428 kts | 255° |
| 2026-05-07 13:11 | 31.05895 | 96.76833 | 32066 ft | 429 kts | 255° |
| 2026-05-07 13:11 | 31.04192 | 96.68986 | 32069 ft | 430 kts | 255° |
| 2026-05-07 13:12 | 31.02963 | 96.63321 | 32067 ft | 430 kts | 255° |
| 2026-05-07 13:12 | 31.01502 | 96.56614 | 32081 ft | 430 kts | 255° |
| 2026-05-07 13:13 | 31.00020 | 96.49865 | 32081 ft | 430 kts | 255° |
| 2026-05-07 13:13 | 30.98540 | 96.43114 | 32083 ft | 430 kts | 255° |
| 2026-05-07 13:14 | 30.97082 | 96.36347 | 32072 ft | 431 kts | 255° |
| 2026-05-07 13:14 | 30.95672 | 96.29601 | 32071 ft | 432 kts | 255° |
| 2026-05-07 13:15 | 30.94247 | 96.22810 | 32067 ft | 432 kts | 255° |
| 2026-05-07 13:15 | 30.92799 | 96.16012 | 32067 ft | 433 kts | 255° |
| 2026-05-07 13:16 | 30.91344 | 96.09210 | 32068 ft | 433 kts | 255° |
| 2026-05-07 13:16 | 30.89890 | 96.02425 | 32074 ft | 432 kts | 255° |
| 2026-05-07 13:17 | 30.88446 | 95.95679 | 32074 ft | 432 kts | 255° |
| 2026-05-07 13:17 | 30.86992 | 95.88892 | 32077 ft | 432 kts | 255° |
| 2026-05-07 13:18 | 30.85534 | 95.82126 | 32076 ft | 431 kts | 255° |
| 2026-05-07 13:18 | 30.84066 | 95.75353 | 32063 ft | 432 kts | 255° |
| 2026-05-07 13:19 | 30.82627 | 95.68625 | 32103 ft | 431 kts | 255° |
| 2026-05-07 13:19 | 30.81240 | 95.61838 | 32107 ft | 431 kts | 256° |
| 2026-05-07 13:20 | 30.79862 | 95.55063 | 32098 ft | 430 kts | 256° |
| 2026-05-07 13:20 | 30.78467 | 95.48290 | 32112 ft | 431 kts | 256° |
| 2026-05-07 13:21 | 30.77062 | 95.41527 | 32105 ft | 430 kts | 255° |
| 2026-05-07 13:21 | 30.75658 | 95.34806 | 32110 ft | 431 kts | 256° |
| 2026-05-07 13:22 | 30.74249 | 95.28049 | 32181 ft | 430 kts | 256° |
| 2026-05-07 13:22 | 30.72834 | 95.21303 | 32173 ft | 429 kts | 255° |
| 2026-05-07 13:23 | 30.71414 | 95.14567 | 32170 ft | 428 kts | 255° |
| 2026-05-07 13:23 | 30.70005 | 95.07890 | 32165 ft | 428 kts | 255° |
| 2026-05-07 13:24 | 30.68586 | 95.01164 | 32161 ft | 429 kts | 256° |
| 2026-05-07 13:24 | 30.67164 | 94.94453 | 32161 ft | 428 kts | 255° |
| 2026-05-07 13:25 | 30.65731 | 94.87728 | 32152 ft | 429 kts | 255° |
| 2026-05-07 13:25 | 30.64303 | 94.81039 | 32188 ft | 430 kts | 255° |
| 2026-05-07 13:26 | 30.62863 | 94.74308 | 32190 ft | 430 kts | 255° |
| 2026-05-07 13:26 | 30.61426 | 94.67574 | 32178 ft | 430 kts | 255° |
| 2026-05-07 13:27 | 30.59992 | 94.60880 | 32172 ft | 430 kts | 255° |
| 2026-05-07 13:27 | 30.58543 | 94.54169 | 32223 ft | 428 kts | 255° |
| 2026-05-07 13:28 | 30.57097 | 94.47487 | 32213 ft | 426 kts | 255° |
| 2026-05-07 13:28 | 30.55653 | 94.40816 | 32208 ft | 426 kts | 254° |
| 2026-05-07 13:29 | 30.54207 | 94.34156 | 32222 ft | 426 kts | 255° |
| 2026-05-07 13:29 | 30.52768 | 94.27542 | 32213 ft | 426 kts | 254° |
| 2026-05-07 13:30 | 30.51319 | 94.20895 | 32205 ft | 425 kts | 254° |
| 2026-05-07 13:30 | 30.49892 | 94.14224 | 31713 ft | 427 kts | 255° |
| 2026-05-07 13:31 | 30.49202 | 94.10872 | 31469 ft | 430 kts | 255° |
| 2026-05-07 13:31 | 30.48510 | 94.07488 | 31229 ft | 432 kts | 255° |
| 2026-05-07 13:31 | 30.47816 | 94.04090 | 30988 ft | 434 kts | 255° |
| 2026-05-07 13:31 | 30.47125 | 94.00724 | 30763 ft | 436 kts | 255° |
| 2026-05-07 13:32 | 30.46419 | 93.97307 | 30531 ft | 437 kts | 255° |
| 2026-05-07 13:32 | 30.45703 | 93.93882 | 30292 ft | 439 kts | 255° |
| 2026-05-07 13:32 | 30.44975 | 93.90425 | 30050 ft | 442 kts | 255° |
| 2026-05-07 13:32 | 30.44244 | 93.86960 | 29771 ft | 444 kts | 255° |
| 2026-05-07 13:33 | 30.43510 | 93.83479 | 29503 ft | 445 kts | 255° |
| 2026-05-07 13:33 | 30.42775 | 93.79996 | 29239 ft | 446 kts | 255° |
| 2026-05-07 13:33 | 30.42035 | 93.76487 | 28959 ft | 449 kts | 255° |
| 2026-05-07 13:33 | 30.41302 | 93.73016 | 28708 ft | 450 kts | 255° |
| 2026-05-07 13:34 | 30.40556 | 93.69484 | 28444 ft | 452 kts | 255° |
| 2026-05-07 13:34 | 30.38984 | 93.62427 | 27930 ft | 453 kts | 250° |
| 2026-05-07 13:34 | 30.37761 | 93.59067 | 27675 ft | 453 kts | 242° |
| 2026-05-07 13:35 | 30.36128 | 93.55939 | 27424 ft | 455 kts | 235° |
| 2026-05-07 13:35 | 30.34314 | 93.52941 | 27153 ft | 455 kts | 235° |
| 2026-05-07 13:35 | 30.32500 | 93.49942 | 26901 ft | 454 kts | 235° |
| 2026-05-07 13:35 | 30.30716 | 93.46989 | 26661 ft | 455 kts | 235° |
| 2026-05-07 13:36 | 30.28902 | 93.43987 | 26420 ft | 456 kts | 235° |
| 2026-05-07 13:36 | 30.27085 | 93.40983 | 26176 ft | 456 kts | 235° |
| 2026-05-07 13:36 | 30.25267 | 93.37979 | 25948 ft | 457 kts | 235° |
| 2026-05-07 13:36 | 30.23432 | 93.34954 | 25685 ft | 458 kts | 235° |
| 2026-05-07 13:37 | 30.21599 | 93.31934 | 25449 ft | 460 kts | 235° |
| 2026-05-07 13:37 | 30.19759 | 93.28902 | 25215 ft | 461 kts | 235° |
| 2026-05-07 13:37 | 30.17914 | 93.25864 | 24986 ft | 462 kts | 234° |
| 2026-05-07 13:37 | 30.16087 | 93.22857 | 24764 ft | 464 kts | 234° |
| 2026-05-07 13:38 | 30.14246 | 93.19829 | 24518 ft | 459 kts | 234° |
| 2026-05-07 13:38 | 30.12415 | 93.16818 | 24293 ft | 457 kts | 234° |
| 2026-05-07 13:38 | 30.10591 | 93.13821 | 24063 ft | 456 kts | 234° |
| 2026-05-07 13:38 | 30.08769 | 93.10828 | 23835 ft | 454 kts | 234° |
| 2026-05-07 13:39 | 30.06953 | 93.07844 | 23601 ft | 453 kts | 234° |
| 2026-05-07 13:39 | 30.05157 | 93.04894 | 23657 ft | 446 kts | 235° |
| 2026-05-07 13:39 | 30.03361 | 93.01951 | 23589 ft | 451 kts | 234° |
| 2026-05-07 13:39 | 30.01568 | 92.99026 | 23607 ft | 453 kts | 234° |
| 2026-05-07 13:40 | 29.99746 | 92.96058 | 23609 ft | 453 kts | 234° |
| 2026-05-07 13:40 | 29.97924 | 92.93088 | 23606 ft | 453 kts | 234° |
| 2026-05-07 13:40 | 29.96102 | 92.90118 | 23608 ft | 454 kts | 234° |
| 2026-05-07 13:40 | 29.94282 | 92.87151 | 23598 ft | 454 kts | 234° |
| 2026-05-07 13:41 | 29.92456 | 92.84172 | 23602 ft | 455 kts | 234° |
| 2026-05-07 13:41 | 29.90631 | 92.81197 | 23607 ft | 454 kts | 234° |
| 2026-05-07 13:41 | 29.88834 | 92.78271 | 23615 ft | 454 kts | 234° |
| 2026-05-07 13:41 | 29.87012 | 92.75301 | 23612 ft | 454 kts | 234° |
| 2026-05-07 13:42 | 29.85189 | 92.72328 | 23616 ft | 454 kts | 234° |
| 2026-05-07 13:42 | 29.83368 | 92.69361 | 23613 ft | 454 kts | 234° |
| 2026-05-07 13:42 | 29.81543 | 92.66394 | 23636 ft | 454 kts | 234° |
| 2026-05-07 13:42 | 29.79718 | 92.63434 | 23624 ft | 453 kts | 234° |
| 2026-05-07 13:43 | 29.77894 | 92.60489 | 23626 ft | 451 kts | 234° |
| 2026-05-07 13:43 | 29.76071 | 92.57553 | 23629 ft | 451 kts | 234° |
| 2026-05-07 13:43 | 29.74250 | 92.54621 | 23625 ft | 450 kts | 234° |
| 2026-05-07 13:43 | 29.72457 | 92.51731 | 23621 ft | 449 kts | 234° |
| 2026-05-07 13:44 | 29.70644 | 92.48803 | 23631 ft | 449 kts | 234° |
| 2026-05-07 13:44 | 29.68836 | 92.45875 | 23637 ft | 449 kts | 234° |
| 2026-05-07 13:44 | 29.67028 | 92.42948 | 23633 ft | 449 kts | 234° |
| 2026-05-07 13:44 | 29.65217 | 92.40024 | 23630 ft | 449 kts | 234° |
| 2026-05-07 13:45 | 29.63405 | 92.37104 | 23630 ft | 449 kts | 234° |
| 2026-05-07 13:45 | 29.61590 | 92.34181 | 23629 ft | 450 kts | 234° |
| 2026-05-07 13:45 | 29.59774 | 92.31260 | 23631 ft | 449 kts | 234° |
| 2026-05-07 13:45 | 29.57983 | 92.28383 | 23642 ft | 449 kts | 234° |
| 2026-05-07 13:46 | 29.56166 | 92.25468 | 23614 ft | 449 kts | 234° |
| 2026-05-07 13:46 | 29.54349 | 92.22549 | 23622 ft | 449 kts | 234° |
| 2026-05-07 13:46 | 29.52533 | 92.19634 | 23618 ft | 449 kts | 234° |
| 2026-05-07 13:46 | 29.50718 | 92.16718 | 23618 ft | 449 kts | 234° |
| 2026-05-07 13:47 | 29.48904 | 92.13806 | 23607 ft | 449 kts | 234° |
| 2026-05-07 13:47 | 29.47084 | 92.10888 | 23607 ft | 449 kts | 234° |
| 2026-05-07 13:47 | 29.45266 | 92.07978 | 23602 ft | 449 kts | 234° |
| 2026-05-07 13:47 | 29.43443 | 92.05071 | 23602 ft | 449 kts | 234° |
| 2026-05-07 13:48 | 29.41619 | 92.02169 | 23595 ft | 449 kts | 234° |
| 2026-05-07 13:48 | 29.39819 | 91.99304 | 23606 ft | 449 kts | 234° |
| 2026-05-07 13:48 | 29.37995 | 91.96399 | 23595 ft | 449 kts | 234° |
| 2026-05-07 13:48 | 29.36171 | 91.93496 | 23597 ft | 449 kts | 234° |
| 2026-05-07 13:49 | 29.34349 | 91.90591 | 23584 ft | 449 kts | 234° |
| 2026-05-07 13:49 | 29.32529 | 91.87688 | 23590 ft | 449 kts | 234° |
| 2026-05-07 13:49 | 29.30702 | 91.84774 | 23583 ft | 449 kts | 234° |
| 2026-05-07 13:49 | 29.28891 | 91.81855 | 23576 ft | 450 kts | 236° |
| 2026-05-07 13:50 | 29.27421 | 91.78752 | 23578 ft | 451 kts | 245° |
| 2026-05-07 13:50 | 29.26420 | 91.75353 | 23570 ft | 452 kts | 255° |
| 2026-05-07 13:50 | 29.25897 | 91.71807 | 22777 ft | 452 kts | 263° |
| 2026-05-07 13:50 | 29.25929 | 91.68197 | 21592 ft | 453 kts | 272° |
| 2026-05-07 13:51 | 29.26177 | 91.64637 | 20618 ft | 444 kts | 272° |
| 2026-05-07 13:51 | 29.26406 | 91.61198 | 20281 ft | 418 kts | 272° |
| 2026-05-07 13:51 | 29.26608 | 91.57995 | 20187 ft | 390 kts | 272° |
| 2026-05-07 13:51 | 29.26785 | 91.55002 | 20109 ft | 365 kts | 271° |
| 2026-05-07 13:52 | 29.26943 | 91.52231 | 20041 ft | 342 kts | 271° |
| 2026-05-07 13:52 | 29.27088 | 91.49602 | 19961 ft | 321 kts | 271° |
| 2026-05-07 13:52 | 29.27365 | 91.47138 | 19877 ft | 305 kts | 281° |
| 2026-05-07 13:52 | 29.28048 | 91.44895 | 19753 ft | 292 kts | 288° |
| 2026-05-07 13:53 | 29.28768 | 91.42777 | 19631 ft | 278 kts | 287° |
| 2026-05-07 13:53 | 29.29453 | 91.40759 | 19518 ft | 266 kts | 287° |
| 2026-05-07 13:53 | 29.30102 | 91.38840 | 19391 ft | 250 kts | 286° |
| 2026-05-07 13:53 | 29.30447 | 91.36971 | 19281 ft | 230 kts | 269° |
| 2026-05-07 13:54 | 29.30412 | 91.35167 | 18897 ft | 223 kts | 264° |
| 2026-05-07 13:54 | 29.30359 | 91.33441 | 18579 ft | 207 kts | 265° |
| 2026-05-07 13:54 | 29.30335 | 91.31879 | 18279 ft | 191 kts | 265° |
| 2026-05-07 13:54 | 29.30316 | 91.30381 | 17777 ft | 186 kts | 266° |
| 2026-05-07 13:55 | 29.30299 | 91.28939 | 17414 ft | 176 kts | 266° |
| 2026-05-07 13:55 | 29.30282 | 91.27553 | 17150 ft | 173 kts | 266° |
| 2026-05-07 13:55 | 29.30265 | 91.26179 | 16915 ft | 172 kts | 266° |
| 2026-05-07 13:55 | 29.30249 | 91.24806 | 16681 ft | 172 kts | 266° |
| 2026-05-07 13:56 | 29.30232 | 91.23439 | 16456 ft | 171 kts | 265° |
| 2026-05-07 13:56 | 29.30216 | 91.22076 | 16228 ft | 171 kts | 265° |
| 2026-05-07 13:56 | 29.30199 | 91.20710 | 16001 ft | 172 kts | 266° |
| 2026-05-07 13:56 | 29.30182 | 91.19358 | 15781 ft | 172 kts | 267° |
| 2026-05-07 13:57 | 29.30165 | 91.17983 | 15562 ft | 173 kts | 266° |
| 2026-05-07 13:57 | 29.30148 | 91.16604 | 15346 ft | 173 kts | 265° |
| 2026-05-07 13:57 | 29.30131 | 91.15220 | 15121 ft | 174 kts | 266° |
| 2026-05-07 13:57 | 29.30113 | 91.13835 | 14918 ft | 173 kts | 265° |
| 2026-05-07 13:58 | 29.30096 | 91.12468 | 14706 ft | 171 kts | 266° |
| 2026-05-07 13:58 | 29.30078 | 91.11103 | 14501 ft | 171 kts | 265° |
| 2026-05-07 13:58 | 29.30061 | 91.09745 | 14288 ft | 170 kts | 265° |
| 2026-05-07 13:58 | 29.30043 | 91.08405 | 14085 ft | 171 kts | 265° |
| 2026-05-07 13:59 | 29.30025 | 91.07037 | 13876 ft | 172 kts | 266° |
| 2026-05-07 13:59 | 29.30007 | 91.05669 | 13697 ft | 172 kts | 266° |
| 2026-05-07 13:59 | 29.29989 | 91.04302 | 13507 ft | 171 kts | 266° |
| 2026-05-07 13:59 | 29.29974 | 91.02932 | 13360 ft | 173 kts | 266° |
| 2026-05-07 14:00 | 29.29943 | 91.01553 | 13120 ft | 173 kts | 266° |
| 2026-05-07 14:00 | 29.29924 | 91.00189 | 12921 ft | 173 kts | 268° |
| 2026-05-07 14:00 | 29.29913 | 90.98831 | 12631 ft | 172 kts | 267° |
| 2026-05-07 14:00 | 29.29904 | 90.97471 | 12382 ft | 170 kts | 267° |
| 2026-05-07 14:01 | 29.29879 | 90.96138 | 12115 ft | 170 kts | 266° |
| 2026-05-07 14:01 | 29.29863 | 90.94792 | 11856 ft | 167 kts | 268° |
| 2026-05-07 14:01 | 29.29844 | 90.93475 | 11649 ft | 165 kts | 266° |
| 2026-05-07 14:01 | 29.29827 | 90.92245 | 11567 ft | 145 kts | 269° |
| 2026-05-07 14:02 | 29.29809 | 90.91396 | 11582 ft | 64 kts | 269° |
| 2026-05-07 14:02 | 29.29804 | 90.90959 | 11582 ft | 58 kts | 269° |
| 2026-05-07 14:02 | 29.29791 | 90.90525 | 11577 ft | 34 kts | 255° |
| 2026-05-07 14:02 | 29.29726 | 90.90362 | 11580 ft | 16 kts | 239° |
| 2026-05-07 14:03 | 29.29676 | 90.90258 | 11584 ft | 11 kts | 242° |
| 2026-05-07 14:03 | 29.29638 | 90.90171 | 11580 ft | 13 kts | 252° |
| 2026-05-07 14:03 | 29.29624 | 90.90062 | 11585 ft | 13 kts | 269° |
| 2026-05-07 14:03 | 29.29589 | 90.90006 | 11576 ft | 9 kts | 185° |
| 2026-05-07 14:04 | 29.29530 | 90.89987 | 11574 ft | 10 kts | 231° |
| 2026-05-07 14:04 | 29.29524 | 90.89919 | 11585 ft | 6 kts | 270° |
| 2026-05-07 14:04 | 29.29524 | 90.89864 | 11585 ft | 7 kts | 270° |
| 2026-05-07 14:04 | 29.29523 | 90.89802 | 11582 ft | 8 kts | 268° |
| 2026-05-07 14:05 | 29.29521 | 90.89730 | 11582 ft | 10 kts | 268° |
| 2026-05-07 14:05 | 29.29520 | 90.89649 | 11582 ft | 11 kts | 269° |
| 2026-05-07 14:05 | 29.29518 | 90.89558 | 11584 ft | 12 kts | 269° |
| 2026-05-07 14:05 | 29.29500 | 90.89506 | 11576 ft | 9 kts | 204° |
| 2026-05-07 14:06 | 29.29439 | 90.89504 | 11582 ft | 10 kts | 179° |
| 2026-05-07 14:06 | 29.29385 | 90.89504 | 11581 ft | 4 kts | 180° |
| 2026-05-07 14:06 | 29.29367 | 90.89504 | 11586 ft | 0 kts | 180° |